Time;durP1;ratioP1;P1;durP2;ratioP2;P2;SDS_P1;SDS_P2;PMS_P1;PMS_P2;Temp;Humidity;BMP_temperature;BMP_pressure;BME280_temperature;BME280_humidity;BME280_pressure;Samples;Min_cycle;Max_cycle;Signal;HPM_P1;HPM_P2
2021/03/06 00:00:08;;;;;;;13.13;8.95;;;;;;;;;;5135149;27;20672;-64
2021/03/06 00:02:35;;;;;;;14.23;9.40;;;;;;;;;;5136099;27;20280;-63
2021/03/06 00:05:02;;;;;;;15.30;9.27;;;;;;;;;;5136068;27;20196;-64
2021/03/06 00:07:29;;;;;;;9.80;8.75;;;;;;;;;;5134247;27;20231;-64
2021/03/06 00:09:56;;;;;;;14.55;8.77;;;;;;;;;;5135641;27;20311;-65
2021/03/06 00:12:22;;;;;;;9.68;8.00;;;;;;;;;;5135430;27;20277;-64
2021/03/06 00:14:50;;;;;;;11.85;9.10;;;;;;;;;;5135825;27;20314;-63
2021/03/06 00:17:17;;;;;;;12.88;9.35;;;;;;;;;;5135893;27;20290;-63
2021/03/06 00:19:44;;;;;;;10.18;8.43;;;;;;;;;;5135782;27;20349;-64
2021/03/06 00:22:10;;;;;;;10.43;7.85;;;;;;;;;;5135185;27;20283;-64
2021/03/06 00:24:37;;;;;;;12.68;8.15;;;;;;;;;;5134913;27;20291;-63
2021/03/06 00:27:04;;;;;;;11.32;7.63;;;;;;;;;;5135636;27;20236;-64
2021/03/06 00:29:31;;;;;;;7.63;6.93;;;;;;;;;;5135425;27;20202;-63
2021/03/06 00:31:58;;;;;;;7.72;6.93;;;;;;;;;;5134114;27;20296;-64
2021/03/06 00:34:25;;;;;;;12.52;8.40;;;;;;;;;;5134217;27;20218;-64
2021/03/06 00:36:52;;;;;;;13.75;7.35;;;;;;;;;;5132456;27;20195;-64
2021/03/06 00:39:19;;;;;;;12.05;7.28;;;;;;;;;;5134685;27;20236;-64
2021/03/06 00:41:45;;;;;;;13.52;7.68;;;;;;;;;;5134769;27;20291;-64
2021/03/06 00:44:12;;;;;;;10.68;7.72;;;;;;;;;;5135935;27;20250;-64
2021/03/06 00:46:39;;;;;;;8.00;7.15;;;;;;;;;;5134826;27;20284;-63
2021/03/06 00:49:06;;;;;;;10.65;7.60;;;;;;;;;;5134867;27;20275;-63
2021/03/06 00:51:33;;;;;;;9.70;6.07;;;;;;;;;;5134996;27;20618;-64
2021/03/06 00:54:00;;;;;;;10.00;7.00;;;;;;;;;;5135083;27;20226;-64
2021/03/06 00:56:27;;;;;;;10.10;7.75;;;;;;;;;;5135196;27;20631;-64
2021/03/06 00:58:53;;;;;;;11.07;7.15;;;;;;;;;;5134627;27;20282;-65
2021/03/06 01:01:20;;;;;;;11.85;7.90;;;;;;;;;;5134368;27;20283;-64
2021/03/06 01:03:47;;;;;;;8.85;6.95;;;;;;;;;;5135062;27;20286;-64
2021/03/06 01:06:14;;;;;;;14.88;6.57;;;;;;;;;;5134620;27;20203;-64
2021/03/06 01:08:41;;;;;;;9.05;6.63;;;;;;;;;;5132100;27;20737;-64
2021/03/06 01:11:08;;;;;;;7.95;6.90;;;;;;;;;;5134719;27;20270;-65
2021/03/06 01:13:35;;;;;;;8.70;7.13;;;;;;;;;;5134574;27;20347;-64
2021/03/06 01:16:01;;;;;;;9.45;7.25;;;;;;;;;;5134629;27;20310;-64
2021/03/06 01:18:28;;;;;;;8.82;7.05;;;;;;;;;;5134891;27;20279;-64
2021/03/06 01:20:55;;;;;;;9.77;7.70;;;;;;;;;;5134734;27;20238;-64
2021/03/06 01:23:23;;;;;;;9.40;7.13;;;;;;;;;;5134464;27;20289;-64
2021/03/06 01:25:49;;;;;;;9.65;6.40;;;;;;;;;;5134325;27;20657;-64
2021/03/06 01:28:16;;;;;;;8.35;7.47;;;;;;;;;;5134333;27;20226;-64
2021/03/06 01:30:43;;;;;;;11.73;7.55;;;;;;;;;;5134798;27;20284;-64
2021/03/06 01:33:10;;;;;;;9.73;7.22;;;;;;;;;;5134339;27;20231;-64
2021/03/06 01:35:37;;;;;;;7.10;6.40;;;;;;;;;;5134277;27;20212;-64
2021/03/06 01:38:04;;;;;;;10.15;7.07;;;;;;;;;;5133646;28;20283;-64
2021/03/06 01:40:32;;;;;;;8.07;7.25;;;;;;;;;;5131924;28;20196;-64
2021/03/06 01:43:00;;;;;;;8.75;7.05;;;;;;;;;;5133826;28;20286;-64
2021/03/06 01:45:27;;;;;;;10.95;7.30;;;;;;;;;;5134666;28;20695;-64
2021/03/06 01:47:53;;;;;;;7.18;6.47;;;;;;;;;;5134839;28;20331;-65
2021/03/06 01:50:21;;;;;;;11.30;8.63;;;;;;;;;;5133823;28;20191;-64
2021/03/06 01:52:49;;;;;;;14.77;9.50;;;;;;;;;;5134215;28;20727;-64
2021/03/06 01:55:16;;;;;;;9.35;7.07;;;;;;;;;;5133953;28;20211;-65
2021/03/06 01:57:44;;;;;;;9.93;6.53;;;;;;;;;;5133922;28;20204;-65
2021/03/06 02:00:11;;;;;;;8.18;6.78;;;;;;;;;;5134201;28;20226;-64
2021/03/06 02:02:38;;;;;;;8.23;7.20;;;;;;;;;;5134122;28;20309;-64
2021/03/06 02:05:06;;;;;;;8.75;7.40;;;;;;;;;;5134469;28;20290;-64
2021/03/06 02:07:32;;;;;;;14.75;7.10;;;;;;;;;;5133955;28;20649;-64
2021/03/06 02:10:01;;;;;;;11.00;7.60;;;;;;;;;;5132368;28;20255;-64
2021/03/06 02:12:29;;;;;;;8.27;7.28;;;;;;;;;;5133884;28;20252;-64
2021/03/06 02:15:03;;;;;;;15.90;8.50;;;;;;;;;;5133787;28;20212;-64
2021/03/06 02:17:32;;;;;;;10.98;6.85;;;;;;;;;;5134006;28;20283;-64
2021/03/06 02:20:14;;;;;;;8.40;7.43;;;;;;;;;;5133716;28;20233;-63
2021/03/06 02:22:50;;;;;;;10.13;7.13;;;;;;;;;;5130553;28;20239;-63
2021/03/06 02:25:29;;;;;;;8.80;7.03;;;;;;;;;;5134554;28;20226;-63
2021/03/06 02:27:58;;;;;;;10.50;8.27;;;;;;;;;;5133893;28;20697;-63
2021/03/06 02:30:30;;;;;;;9.55;7.18;;;;;;;;;;5133693;28;20200;-63
2021/03/06 02:32:58;;;;;;;7.95;6.20;;;;;;;;;;5133546;28;20267;-63
2021/03/06 02:35:27;;;;;;;7.30;6.32;;;;;;;;;;5133906;28;20313;-64
2021/03/06 02:37:55;;;;;;;12.80;6.95;;;;;;;;;;5133553;28;20720;-64
2021/03/06 02:40:23;;;;;;;12.77;6.70;;;;;;;;;;5131720;28;20283;-63
2021/03/06 02:42:50;;;;;;;7.40;6.30;;;;;;;;;;5133164;28;20283;-64
2021/03/06 02:45:17;;;;;;;8.60;6.72;;;;;;;;;;5133797;28;20283;-64
2021/03/06 02:47:45;;;;;;;10.27;6.15;;;;;;;;;;5134674;27;20279;-63
2021/03/06 02:50:12;;;;;;;6.90;6.30;;;;;;;;;;5137236;27;20199;-64
2021/03/06 02:52:39;;;;;;;9.05;7.10;;;;;;;;;;5137175;27;20279;-63
2021/03/06 02:55:06;;;;;;;10.45;7.78;;;;;;;;;;5137121;27;20353;-63
2021/03/06 02:57:52;;;;;;;10.00;5.85;;;;;;;;;;5137111;27;20724;-63
2021/03/06 03:00:32;;;;;;;7.65;5.85;;;;;;;;;;5137035;27;20281;-64
2021/03/06 03:03:02;;;;;;;12.13;6.30;;;;;;;;;;5137228;27;20544;-63
2021/03/06 03:05:33;;;;;;;8.18;6.70;;;;;;;;;;5137040;27;20184;-63
2021/03/06 03:08:03;;;;;;;8.45;5.78;;;;;;;;;;5136931;27;20271;-63
2021/03/06 03:10:30;;;;;;;7.75;6.18;;;;;;;;;;5135654;27;20224;-63
2021/03/06 03:13:00;;;;;;;7.57;6.47;;;;;;;;;;5137010;27;20282;-63
2021/03/06 03:15:30;;;;;;;8.43;6.22;;;;;;;;;;5136562;27;20307;-63
2021/03/06 03:17:57;;;;;;;10.05;6.35;;;;;;;;;;5137724;27;20392;-63
2021/03/06 03:20:28;;;;;;;10.98;7.32;;;;;;;;;;5137423;27;20283;-63
2021/03/06 03:22:58;;;;;;;10.45;8.63;;;;;;;;;;5137554;27;20267;-64
2021/03/06 03:25:25;;;;;;;7.20;6.53;;;;;;;;;;5136240;27;20206;-64
2021/03/06 03:27:52;;;;;;;14.32;6.32;;;;;;;;;;5136465;27;20195;-64
2021/03/06 03:30:20;;;;;;;7.22;6.53;;;;;;;;;;5137121;27;20284;-64
2021/03/06 03:32:48;;;;;;;7.40;6.55;;;;;;;;;;5136752;27;20295;-64
2021/03/06 03:35:15;;;;;;;11.93;6.55;;;;;;;;;;5136134;27;20219;-63
2021/03/06 03:37:43;;;;;;;17.70;7.60;;;;;;;;;;5136717;27;20279;-64
2021/03/06 03:40:12;;;;;;;10.23;6.72;;;;;;;;;;5134796;27;20206;-64
2021/03/06 03:42:39;;;;;;;10.00;6.88;;;;;;;;;;5136374;27;20196;-63
2021/03/06 03:45:07;;;;;;;9.23;7.20;;;;;;;;;;5135979;27;20259;-63
2021/03/06 03:47:34;;;;;;;8.77;6.80;;;;;;;;;;5137406;27;20196;-63
2021/03/06 03:50:01;;;;;;;11.57;7.47;;;;;;;;;;5136131;27;20286;-63
2021/03/06 03:52:27;;;;;;;9.35;7.03;;;;;;;;;;5136079;27;20287;-63
2021/03/06 03:54:55;;;;;;;7.50;6.72;;;;;;;;;;5135758;27;20222;-63
2021/03/06 03:57:22;;;;;;;9.65;7.40;;;;;;;;;;5135921;27;20286;-63
2021/03/06 03:59:49;;;;;;;12.25;8.25;;;;;;;;;;5135429;27;20286;-63
2021/03/06 04:02:22;;;;;;;10.95;7.63;;;;;;;;;;5136482;27;20340;-64
2021/03/06 04:04:48;;;;;;;9.50;6.90;;;;;;;;;;5135680;27;20191;-64
2021/03/06 04:07:15;;;;;;;11.80;7.50;;;;;;;;;;5136018;27;20282;-64
2021/03/06 04:09:42;;;;;;;10.80;6.07;;;;;;;;;;5136026;27;20314;-64
2021/03/06 04:12:10;;;;;;;8.20;6.22;;;;;;;;;;5134176;27;20202;-63
2021/03/06 04:14:36;;;;;;;9.18;6.60;;;;;;;;;;5135554;27;20219;-64
2021/03/06 04:17:03;;;;;;;6.78;6.20;;;;;;;;;;5135635;27;20291;-63
2021/03/06 04:19:30;;;;;;;13.15;8.10;;;;;;;;;;5136221;27;20286;-63
2021/03/06 04:21:56;;;;;;;11.27;7.80;;;;;;;;;;5135801;27;20298;-63
2021/03/06 04:24:24;;;;;;;13.15;6.97;;;;;;;;;;5135189;27;20285;-64
2021/03/06 04:26:51;;;;;;;9.02;7.30;;;;;;;;;;5135199;27;20689;-63
2021/03/06 04:29:19;;;;;;;14.00;7.13;;;;;;;;;;5135380;27;20679;-64
2021/03/06 04:31:46;;;;;;;10.70;6.35;;;;;;;;;;5135200;27;20192;-64
2021/03/06 04:34:13;;;;;;;8.50;7.43;;;;;;;;;;5136032;27;20287;-63
2021/03/06 04:36:40;;;;;;;8.80;7.40;;;;;;;;;;5135348;27;20282;-64
2021/03/06 04:39:06;;;;;;;10.48;6.60;;;;;;;;;;5135136;27;20234;-63
2021/03/06 04:41:33;;;;;;;10.13;6.18;;;;;;;;;;5132898;27;20283;-63
2021/03/06 04:44:00;;;;;;;11.68;6.90;;;;;;;;;;5134791;27;20679;-63
2021/03/06 04:46:28;;;;;;;12.80;7.93;;;;;;;;;;5134945;27;20244;-63
2021/03/06 04:48:54;;;;;;;9.63;6.43;;;;;;;;;;5135274;27;20284;-63
2021/03/06 04:51:21;;;;;;;10.30;6.57;;;;;;;;;;5135279;27;20237;-63
2021/03/06 04:53:48;;;;;;;9.70;7.45;;;;;;;;;;5134702;27;20706;-63
2021/03/06 04:56:14;;;;;;;14.00;8.43;;;;;;;;;;5134865;27;20310;-63
2021/03/06 04:58:41;;;;;;;13.32;7.53;;;;;;;;;;5135165;27;20255;-64
2021/03/06 05:01:08;;;;;;;13.60;7.18;;;;;;;;;;5134591;27;20192;-63
2021/03/06 05:03:35;;;;;;;8.05;7.20;;;;;;;;;;5134982;27;20299;-63
2021/03/06 05:06:02;;;;;;;7.78;7.07;;;;;;;;;;5134692;27;20283;-64
2021/03/06 05:08:29;;;;;;;9.13;6.70;;;;;;;;;;5134775;27;20722;-63
2021/03/06 05:10:55;;;;;;;7.57;6.30;;;;;;;;;;5135344;27;20274;-63
2021/03/06 05:13:22;;;;;;;11.13;7.50;;;;;;;;;;5132959;27;20287;-63
2021/03/06 05:15:49;;;;;;;14.15;8.23;;;;;;;;;;5134736;27;20306;-63
2021/03/06 05:18:16;;;;;;;9.45;7.40;;;;;;;;;;5134059;27;20192;-64
2021/03/06 05:20:43;;;;;;;13.35;7.05;;;;;;;;;;5134798;27;20282;-63
2021/03/06 05:23:10;;;;;;;10.77;6.95;;;;;;;;;;5134502;27;20316;-64
2021/03/06 05:25:37;;;;;;;10.90;7.68;;;;;;;;;;5134218;27;20202;-64
2021/03/06 05:28:04;;;;;;;8.18;7.38;;;;;;;;;;5134345;27;20287;-63
2021/03/06 05:30:30;;;;;;;8.77;7.65;;;;;;;;;;5134393;27;20544;-65
2021/03/06 05:32:57;;;;;;;8.95;7.68;;;;;;;;;;5134749;27;20287;-64
2021/03/06 05:35:24;;;;;;;10.40;7.22;;;;;;;;;;5134261;28;20298;-64
2021/03/06 05:37:51;;;;;;;9.95;8.27;;;;;;;;;;5133395;28;20287;-64
2021/03/06 05:40:18;;;;;;;12.50;7.78;;;;;;;;;;5133285;28;20287;-64
2021/03/06 05:42:45;;;;;;;9.02;7.95;;;;;;;;;;5131577;28;20623;-65
2021/03/06 05:45:12;;;;;;;11.40;8.23;;;;;;;;;;5133928;28;20735;-64
2021/03/06 05:47:39;;;;;;;12.70;8.40;;;;;;;;;;5134610;28;20277;-64
2021/03/06 05:50:06;;;;;;;8.05;7.35;;;;;;;;;;5134858;28;20353;-64
2021/03/06 05:52:33;;;;;;;9.68;8.15;;;;;;;;;;5134430;28;20200;-64
2021/03/06 05:55:01;;;;;;;19.13;9.52;;;;;;;;;;5134062;28;20250;-64
2021/03/06 05:57:28;;;;;;;9.32;7.25;;;;;;;;;;5133798;28;20280;-64
2021/03/06 05:59:55;;;;;;;8.75;7.85;;;;;;;;;;5134778;28;20614;-64
2021/03/06 06:02:22;;;;;;;10.48;8.30;;;;;;;;;;5134030;28;20203;-65
2021/03/06 06:04:49;;;;;;;11.15;9.48;;;;;;;;;;5134331;28;20282;-64
2021/03/06 06:07:17;;;;;;;12.55;8.13;;;;;;;;;;5133780;28;20227;-64
2021/03/06 06:09:44;;;;;;;8.63;7.80;;;;;;;;;;5133651;28;20318;-64
2021/03/06 06:12:12;;;;;;;9.90;8.15;;;;;;;;;;5132111;28;20208;-64
2021/03/06 06:14:39;;;;;;;11.13;7.80;;;;;;;;;;5132674;28;20298;-64
2021/03/06 06:17:09;;;;;;;13.00;8.07;;;;;;;;;;5133241;28;20706;-64
2021/03/06 06:19:37;;;;;;;9.60;7.63;;;;;;;;;;5133595;28;20274;-64
2021/03/06 06:22:15;;;;;;;13.80;8.90;;;;;;;;;;5134130;27;20602;-64
2021/03/06 06:24:43;;;;;;;9.40;7.40;;;;;;;;;;5138031;27;20191;-64
2021/03/06 06:27:10;;;;;;;9.13;8.18;;;;;;;;;;5137167;27;20244;-64
2021/03/06 06:29:38;;;;;;;13.63;9.85;;;;;;;;;;5137361;27;20196;-64
2021/03/06 06:32:06;;;;;;;14.63;9.65;;;;;;;;;;5137569;27;20289;-64
2021/03/06 06:34:32;;;;;;;12.38;8.30;;;;;;;;;;5137357;27;20332;-64
2021/03/06 06:36:59;;;;;;;11.20;8.55;;;;;;;;;;5136719;27;20255;-64
2021/03/06 06:39:29;;;;;;;20.80;10.13;;;;;;;;;;5137553;27;20287;-65
2021/03/06 06:41:57;;;;;;;16.92;9.50;;;;;;;;;;5136016;27;20220;-65
2021/03/06 06:44:24;;;;;;;12.80;9.10;;;;;;;;;;5137296;27;20295;-65
2021/03/06 06:46:51;;;;;;;11.70;9.52;;;;;;;;;;5137386;27;20254;-66
2021/03/06 06:49:18;;;;;;;10.70;9.70;;;;;;;;;;5137572;27;20631;-64
2021/03/06 06:51:58;;;;;;;18.60;8.90;;;;;;;;;;5137583;27;20282;-65
2021/03/06 06:54:25;;;;;;;12.35;9.63;;;;;;;;;;5137412;27;20624;-65
2021/03/06 06:56:52;;;;;;;13.05;10.20;;;;;;;;;;5137098;27;20533;-64
2021/03/06 06:59:19;;;;;;;13.98;10.50;;;;;;;;;;5137557;27;20316;-64
2021/03/06 07:01:45;;;;;;;16.48;11.77;;;;;;;;;;5136795;27;20290;-65
2021/03/06 07:04:13;;;;;;;17.95;10.18;;;;;;;;;;5136687;27;20285;-64
2021/03/06 07:06:40;;;;;;;12.20;9.65;;;;;;;;;;5137122;27;20294;-65
2021/03/06 07:09:16;;;;;;;24.08;11.50;;;;;;;;;;5136181;27;20328;-64
2021/03/06 07:11:43;;;;;;;15.13;11.38;;;;;;;;;;5137117;27;20230;-65
2021/03/06 07:14:10;;;;;;;14.05;10.40;;;;;;;;;;5134563;27;20196;-66
2021/03/06 07:16:51;;;;;;;14.50;9.38;;;;;;;;;;5136994;27;20224;-64
2021/03/06 07:19:19;;;;;;;17.08;9.18;;;;;;;;;;5136004;27;20282;-65
2021/03/06 07:21:49;;;;;;;14.88;10.30;;;;;;;;;;5136523;27;20195;-65
2021/03/06 07:24:16;;;;;;;13.65;9.43;;;;;;;;;;5136144;27;20198;-65
2021/03/06 07:26:42;;;;;;;14.07;10.63;;;;;;;;;;5136453;27;20199;-67
2021/03/06 07:29:09;;;;;;;19.55;10.65;;;;;;;;;;5136035;27;20625;-66
2021/03/06 07:31:37;;;;;;;13.07;10.52;;;;;;;;;;5136319;27;20281;-64
2021/03/06 07:34:05;;;;;;;13.65;10.25;;;;;;;;;;5134856;27;20291;-65
2021/03/06 07:36:34;;;;;;;11.85;10.40;;;;;;;;;;5136552;27;20212;-65
2021/03/06 07:39:02;;;;;;;15.13;10.20;;;;;;;;;;5136402;27;20279;-65
2021/03/06 07:41:30;;;;;;;12.68;10.70;;;;;;;;;;5136452;27;20287;-64
2021/03/06 07:43:58;;;;;;;23.38;11.20;;;;;;;;;;5134756;27;20199;-65
2021/03/06 07:46:25;;;;;;;18.75;11.05;;;;;;;;;;5135899;27;20703;-65
2021/03/06 07:48:53;;;;;;;12.30;11.02;;;;;;;;;;5136189;27;20229;-64
2021/03/06 07:51:22;;;;;;;16.73;11.55;;;;;;;;;;5136340;27;20199;-65
2021/03/06 07:53:49;;;;;;;12.90;11.60;;;;;;;;;;5136076;27;20620;-64
2021/03/06 07:56:16;;;;;;;14.30;11.90;;;;;;;;;;5136752;27;20299;-65
2021/03/06 07:58:47;;;;;;;14.32;11.38;;;;;;;;;;5135228;27;20287;-65
2021/03/06 08:01:24;;;;;;;15.65;11.95;;;;;;;;;;5135361;27;20534;-65
2021/03/06 08:03:51;;;;;;;19.73;10.23;;;;;;;;;;5135548;27;20180;-64
2021/03/06 08:06:19;;;;;;;14.63;10.80;;;;;;;;;;5136051;27;20286;-65
2021/03/06 08:09:04;;;;;;;13.55;10.02;;;;;;;;;;5135266;27;20749;-65
2021/03/06 08:11:39;;;;;;;20.60;11.05;;;;;;;;;;5135528;27;20280;-65
2021/03/06 08:14:07;;;;;;;15.88;9.90;;;;;;;;;;5133144;27;20200;-65
2021/03/06 08:16:39;;;;;;;13.35;10.48;;;;;;;;;;5135366;27;20228;-64
2021/03/06 08:19:22;;;;;;;14.10;9.02;;;;;;;;;;5135012;27;20184;-65
2021/03/06 08:21:49;;;;;;;124.93;69.07;;;;;;;;;;5135489;27;20295;-65
2021/03/06 08:24:26;;;;;;;27.73;19.45;;;;;;;;;;5135570;27;20235;-64
2021/03/06 08:27:08;;;;;;;19.85;11.25;;;;;;;;;;5135500;27;20188;-64
2021/03/06 08:29:37;;;;;;;16.20;10.55;;;;;;;;;;5135056;27;20287;-64
2021/03/06 08:32:05;;;;;;;22.17;11.02;;;;;;;;;;5135008;27;20204;-64
2021/03/06 08:34:32;;;;;;;24.55;14.77;;;;;;;;;;5135057;27;20724;-64
2021/03/06 08:37:16;;;;;;;14.93;11.13;;;;;;;;;;5134723;27;20206;-64
2021/03/06 08:39:44;;;;;;;16.10;10.70;;;;;;;;;;5121713;27;20241;-65
2021/03/06 08:42:11;;;;;;;21.00;9.43;;;;;;;;;;5135801;27;20227;-66
2021/03/06 08:44:39;;;;;;;12.00;9.20;;;;;;;;;;5132553;27;20669;-65
2021/03/06 08:47:05;;;;;;;12.57;9.52;;;;;;;;;;5134225;27;20195;-66
2021/03/06 08:49:32;;;;;;;16.38;9.43;;;;;;;;;;5135261;27;20291;-65
2021/03/06 08:51:59;;;;;;;30.92;10.27;;;;;;;;;;5134861;27;20192;-65
2021/03/06 08:54:26;;;;;;;18.80;8.95;;;;;;;;;;5134806;27;20233;-66
2021/03/06 08:56:53;;;;;;;15.73;9.90;;;;;;;;;;5134739;27;20188;-65
2021/03/06 08:59:20;;;;;;;11.52;8.90;;;;;;;;;;5134796;27;20524;-65
2021/03/06 09:01:48;;;;;;;11.50;8.85;;;;;;;;;;5134959;27;20624;-65
2021/03/06 09:04:14;;;;;;;14.40;8.18;;;;;;;;;;5135292;27;20227;-65
2021/03/06 09:06:42;;;;;;;12.25;8.50;;;;;;;;;;5134897;27;20411;-65
2021/03/06 09:09:09;;;;;;;12.90;8.25;;;;;;;;;;5134055;27;20231;-65
2021/03/06 09:11:36;;;;;;;9.73;6.72;;;;;;;;;;5134541;27;20228;-65
2021/03/06 09:14:03;;;;;;;10.02;6.70;;;;;;;;;;5134113;27;20561;-65
2021/03/06 09:16:30;;;;;;;15.77;6.80;;;;;;;;;;5131956;27;20215;-66
2021/03/06 09:18:58;;;;;;;8.23;7.32;;;;;;;;;;5134282;27;20286;-65
2021/03/06 09:21:25;;;;;;;8.95;6.97;;;;;;;;;;5134270;27;20228;-65
2021/03/06 09:23:53;;;;;;;11.55;7.22;;;;;;;;;;5133319;27;20284;-65
2021/03/06 09:26:21;;;;;;;7.07;5.00;;;;;;;;;;5133046;27;20196;-65
2021/03/06 09:28:49;;;;;;;6.55;5.10;;;;;;;;;;5134350;27;20188;-65
2021/03/06 09:31:16;;;;;;;8.27;5.03;;;;;;;;;;5134096;27;20325;-65
2021/03/06 09:33:43;;;;;;;6.85;4.88;;;;;;;;;;5133719;27;20232;-65
2021/03/06 09:36:11;;;;;;;6.75;4.95;;;;;;;;;;5133149;28;20307;-65
2021/03/06 09:38:48;;;;;;;4.97;3.85;;;;;;;;;;5133857;28;20599;-65
2021/03/06 09:41:16;;;;;;;5.72;3.40;;;;;;;;;;5134417;28;20282;-65
2021/03/06 09:43:43;;;;;;;3.45;3.10;;;;;;;;;;5134797;28;20640;-65
2021/03/06 09:46:14;;;;;;;7.80;2.00;;;;;;;;;;5131845;28;20345;-65
2021/03/06 09:48:47;;;;;;;3.00;2.80;;;;;;;;;;5134205;28;20279;-65
2021/03/06 09:51:15;;;;;;;4.05;2.83;;;;;;;;;;5134262;28;20277;-66
2021/03/06 09:53:42;;;;;;;3.55;1.75;;;;;;;;;;5133675;28;20203;-65
2021/03/06 09:56:10;;;;;;;5.90;2.75;;;;;;;;;;5134135;28;20306;-65
2021/03/06 09:58:37;;;;;;;2.65;2.20;;;;;;;;;;5136541;27;20207;-65
2021/03/06 10:01:18;;;;;;;3.55;2.30;;;;;;;;;;5137767;27;20306;-64
2021/03/06 10:03:46;;;;;;;4.45;2.70;;;;;;;;;;5138418;27;20196;-64
2021/03/06 10:06:14;;;;;;;4.65;2.50;;;;;;;;;;5138580;27;20653;-65
2021/03/06 10:08:45;;;;;;;2.80;2.45;;;;;;;;;;5138446;27;20609;-65
2021/03/06 10:11:13;;;;;;;5.32;2.30;;;;;;;;;;5138123;27;20220;-65
2021/03/06 10:13:40;;;;;;;3.25;2.90;;;;;;;;;;5138185;27;20188;-65
2021/03/06 10:16:07;;;;;;;3.72;2.50;;;;;;;;;;5135959;27;20260;-65
2021/03/06 10:18:37;;;;;;;8.25;3.70;;;;;;;;;;5137950;27;20198;-65
2021/03/06 10:21:09;;;;;;;6.20;3.30;;;;;;;;;;5137534;27;20196;-65
2021/03/06 10:23:36;;;;;;;6.20;3.85;;;;;;;;;;5138317;27;20280;-65
2021/03/06 10:26:17;;;;;;;5.55;4.20;;;;;;;;;;5138117;27;20325;-64
2021/03/06 10:28:44;;;;;;;3.80;3.50;;;;;;;;;;5137069;27;20196;-65
2021/03/06 10:31:29;;;;;;;9.07;3.90;;;;;;;;;;5137187;27;20296;-65
2021/03/06 10:33:56;;;;;;;4.22;3.20;;;;;;;;;;5137985;27;20221;-66
2021/03/06 10:36:23;;;;;;;8.25;3.75;;;;;;;;;;5137872;27;20302;-65
2021/03/06 10:38:50;;;;;;;5.85;3.03;;;;;;;;;;5137543;27;20572;-66
2021/03/06 10:41:18;;;;;;;2.70;2.50;;;;;;;;;;5137242;27;20230;-65
2021/03/06 10:43:45;;;;;;;2.72;2.53;;;;;;;;;;5137743;27;20251;-65
2021/03/06 10:46:13;;;;;;;3.13;2.78;;;;;;;;;;5135460;27;20224;-65
2021/03/06 10:48:41;;;;;;;5.20;2.60;;;;;;;;;;5137062;27;20188;-65
2021/03/06 10:51:08;;;;;;;4.90;2.33;;;;;;;;;;5137816;27;20410;-65
2021/03/06 10:53:36;;;;;;;2.20;2.10;;;;;;;;;;5136677;27;20241;-65
2021/03/06 10:56:06;;;;;;;5.32;2.13;;;;;;;;;;5137536;27;20250;-65
2021/03/06 10:58:44;;;;;;;4.47;2.45;;;;;;;;;;5137557;27;20216;-65
2021/03/06 11:01:12;;;;;;;2.35;2.08;;;;;;;;;;5136561;27;20190;-65
2021/03/06 11:03:42;;;;;;;4.60;2.25;;;;;;;;;;5137774;27;20518;-65
2021/03/06 11:06:09;;;;;;;2.47;2.33;;;;;;;;;;5136918;27;20300;-66
2021/03/06 11:08:36;;;;;;;5.85;2.30;;;;;;;;;;5135793;27;20280;-66
2021/03/06 11:11:02;;;;;;;5.13;2.70;;;;;;;;;;5136579;27;20276;-65
2021/03/06 11:13:39;;;;;;;3.97;3.35;;;;;;;;;;5136781;27;20204;-66
2021/03/06 11:16:07;;;;;;;3.95;3.40;;;;;;;;;;5134725;27;20295;-65
2021/03/06 11:18:34;;;;;;;5.32;2.80;;;;;;;;;;5137385;27;20204;-65
2021/03/06 11:21:01;;;;;;;7.10;2.80;;;;;;;;;;5136688;27;20202;-65
2021/03/06 11:23:28;;;;;;;9.07;2.83;;;;;;;;;;5136061;27;20288;-65
2021/03/06 11:25:55;;;;;;;3.20;2.90;;;;;;;;;;5136549;27;20289;-65
2021/03/06 11:28:21;;;;;;;5.93;2.75;;;;;;;;;;5136746;27;20194;-65
2021/03/06 11:30:50;;;;;;;2.42;2.22;;;;;;;;;;5136342;27;20204;-64
2021/03/06 11:33:18;;;;;;;3.35;2.55;;;;;;;;;;5135802;27;20280;-64
2021/03/06 11:35:45;;;;;;;8.38;5.32;;;;;;;;;;5136879;27;20406;-65
2021/03/06 11:38:13;;;;;;;5.45;3.20;;;;;;;;;;5136097;27;20280;-65
2021/03/06 11:40:41;;;;;;;7.32;3.58;;;;;;;;;;5136456;27;20280;-65
2021/03/06 11:43:08;;;;;;;4.28;2.92;;;;;;;;;;5136254;27;20237;-65
2021/03/06 11:45:35;;;;;;;7.47;3.78;;;;;;;;;;5136158;27;20233;-65
2021/03/06 11:48:02;;;;;;;3.13;2.70;;;;;;;;;;5133895;27;20692;-65
2021/03/06 11:50:30;;;;;;;4.78;2.90;;;;;;;;;;5136227;27;20220;-65
2021/03/06 11:52:57;;;;;;;2.75;2.40;;;;;;;;;;5135783;27;20669;-65
2021/03/06 11:55:24;;;;;;;6.75;2.95;;;;;;;;;;5136205;27;20313;-65
2021/03/06 11:57:51;;;;;;;2.60;2.40;;;;;;;;;;5136193;27;20683;-65
2021/03/06 12:00:19;;;;;;;2.67;2.47;;;;;;;;;;5135780;27;20227;-65
2021/03/06 12:02:46;;;;;;;2.30;2.10;;;;;;;;;;5135862;27;20232;-65
2021/03/06 12:05:16;;;;;;;9.55;2.83;;;;;;;;;;5135721;27;20305;-66
2021/03/06 12:07:44;;;;;;;2.47;2.38;;;;;;;;;;5135818;27;20198;-66
2021/03/06 12:10:12;;;;;;;2.72;2.15;;;;;;;;;;5136120;27;20264;-67
2021/03/06 12:12:39;;;;;;;2.50;2.30;;;;;;;;;;5135418;27;20310;-65
2021/03/06 12:15:06;;;;;;;4.00;2.17;;;;;;;;;;5135951;27;20309;-66
2021/03/06 12:17:33;;;;;;;4.50;2.60;;;;;;;;;;5133962;27;20327;-66
2021/03/06 12:20:00;;;;;;;2.05;1.70;;;;;;;;;;5135113;27;20624;-66
2021/03/06 12:22:27;;;;;;;2.40;2.10;;;;;;;;;;5135569;27;20193;-66
2021/03/06 12:24:55;;;;;;;2.25;2.05;;;;;;;;;;5135741;27;20237;-66
2021/03/06 12:27:21;;;;;;;2.20;2.00;;;;;;;;;;5135531;27;20232;-65
2021/03/06 12:29:48;;;;;;;5.35;3.50;;;;;;;;;;5135118;27;20281;-65
2021/03/06 12:32:15;;;;;;;2.83;2.15;;;;;;;;;;5135198;27;20247;-66
2021/03/06 12:34:42;;;;;;;2.90;2.08;;;;;;;;;;5135141;27;20354;-66
2021/03/06 12:37:08;;;;;;;2.03;1.83;;;;;;;;;;5134555;27;20260;-66
2021/03/06 12:39:35;;;;;;;9.93;2.30;;;;;;;;;;5135032;27;20243;-65
2021/03/06 12:42:03;;;;;;;3.10;1.95;;;;;;;;;;5135058;27;20278;-65
2021/03/06 12:44:30;;;;;;;3.58;1.95;;;;;;;;;;5134953;27;20289;-65
2021/03/06 12:46:56;;;;;;;3.17;1.80;;;;;;;;;;5133254;27;20281;-65
2021/03/06 12:49:23;;;;;;;2.50;2.30;;;;;;;;;;5135052;27;20232;-64
2021/03/06 12:51:50;;;;;;;2.08;1.92;;;;;;;;;;5135596;27;20276;-65
2021/03/06 12:54:17;;;;;;;2.20;2.10;;;;;;;;;;5134419;27;20200;-65
2021/03/06 12:56:44;;;;;;;8.50;3.00;;;;;;;;;;5134893;27;20256;-66
2021/03/06 12:59:11;;;;;;;2.72;2.38;;;;;;;;;;5134752;27;20228;-65
2021/03/06 13:01:38;;;;;;;2.83;2.30;;;;;;;;;;5134800;27;20282;-65
2021/03/06 13:04:05;;;;;;;2.67;2.30;;;;;;;;;;5134517;27;20233;-65
2021/03/06 13:06:32;;;;;;;2.22;2.00;;;;;;;;;;5134564;27;20738;-66
2021/03/06 13:08:58;;;;;;;5.07;2.13;;;;;;;;;;5133681;27;20316;-66
2021/03/06 13:11:25;;;;;;;4.22;2.25;;;;;;;;;;5134481;27;20265;-66
2021/03/06 13:13:52;;;;;;;2.83;2.63;;;;;;;;;;5134377;27;20231;-66
2021/03/06 13:16:20;;;;;;;3.10;2.55;;;;;;;;;;5134808;27;20302;-65
2021/03/06 13:18:46;;;;;;;3.72;2.85;;;;;;;;;;5132982;27;20648;-66
2021/03/06 13:21:14;;;;;;;1.95;1.85;;;;;;;;;;5134324;27;20228;-66
2021/03/06 13:23:41;;;;;;;5.30;2.72;;;;;;;;;;5134052;27;20284;-66
2021/03/06 13:26:08;;;;;;;2.38;2.20;;;;;;;;;;5134449;27;20289;-66
2021/03/06 13:28:35;;;;;;;5.57;2.70;;;;;;;;;;5134834;27;20652;-68
2021/03/06 13:31:01;;;;;;;2.53;2.17;;;;;;;;;;5133788;27;20283;-69
2021/03/06 13:33:29;;;;;;;2.20;2.10;;;;;;;;;;5133871;27;20190;-66
2021/03/06 13:35:56;;;;;;;3.88;3.05;;;;;;;;;;5134306;27;20217;-65
2021/03/06 13:38:23;;;;;;;7.65;2.40;;;;;;;;;;5134202;28;20281;-65
2021/03/06 13:40:49;;;;;;;6.80;3.70;;;;;;;;;;5133777;27;20188;-65
2021/03/06 13:43:16;;;;;;;3.17;2.15;;;;;;;;;;5134248;28;20287;-65
2021/03/06 13:45:43;;;;;;;2.38;2.17;;;;;;;;;;5134080;28;20208;-65
2021/03/06 13:48:10;;;;;;;1.95;1.85;;;;;;;;;;5131937;28;20276;-65
2021/03/06 13:50:37;;;;;;;3.40;2.10;;;;;;;;;;5133772;28;20239;-64
2021/03/06 13:53:04;;;;;;;5.45;2.28;;;;;;;;;;5134251;28;20243;-64
2021/03/06 13:55:32;;;;;;;6.07;2.30;;;;;;;;;;5133456;28;20579;-64
2021/03/06 13:57:59;;;;;;;2.75;2.05;;;;;;;;;;5133287;28;20727;-64
2021/03/06 14:00:26;;;;;;;3.53;2.20;;;;;;;;;;5133480;28;20193;-65
2021/03/06 14:02:53;;;;;;;2.15;2.00;;;;;;;;;;5133879;28;20193;-64
2021/03/06 14:05:20;;;;;;;2.10;1.80;;;;;;;;;;5133527;28;20237;-64
2021/03/06 14:07:47;;;;;;;3.08;2.00;;;;;;;;;;5133863;28;20220;-64
2021/03/06 14:10:16;;;;;;;5.13;2.35;;;;;;;;;;5133923;28;20316;-64
2021/03/06 14:12:43;;;;;;;3.45;2.78;;;;;;;;;;5133653;28;20236;-65
2021/03/06 14:15:11;;;;;;;2.10;1.90;;;;;;;;;;5133826;28;20266;-65
2021/03/06 14:17:37;;;;;;;3.90;2.05;;;;;;;;;;5133865;28;20288;-65
2021/03/06 14:20:05;;;;;;;2.20;1.70;;;;;;;;;;5131936;28;20291;-64
2021/03/06 14:22:31;;;;;;;2.25;2.15;;;;;;;;;;5133831;28;20190;-65
2021/03/06 14:24:59;;;;;;;2.92;2.10;;;;;;;;;;5133882;28;20196;-64
2021/03/06 14:27:26;;;;;;;3.05;2.03;;;;;;;;;;5133495;28;20289;-65
2021/03/06 14:29:52;;;;;;;9.50;2.42;;;;;;;;;;5133473;28;20280;-64
2021/03/06 14:32:19;;;;;;;1.98;1.85;;;;;;;;;;5133365;28;20284;-64
2021/03/06 14:34:46;;;;;;;6.85;3.10;;;;;;;;;;5133667;28;20292;-64
2021/03/06 14:37:13;;;;;;;2.85;2.13;;;;;;;;;;5134307;28;20308;-65
2021/03/06 14:39:40;;;;;;;4.70;2.45;;;;;;;;;;5135679;28;20236;-65